Time;durP1;ratioP1;P1;durP2;ratioP2;P2;SDS_P1;SDS_P2;PMS_P1;PMS_P2;Temp;Humidity;BMP_temperature;BMP_pressure;BME280_temperature;BME280_humidity;BME280_pressure;Samples;Min_cycle;Max_cycle;Signal;HPM_P1;HPM_P2
2023/07/30 00:00:35;;;;;;;4.72;1.98;;;17.20;99.90;;;;;;4992707;28;20064;-78
2023/07/30 00:03:01;;;;;;;13.48;2.45;;;17.30;99.90;;;;;;4983018;28;20603;-78
2023/07/30 00:05:26;;;;;;;5.10;2.28;;;17.30;99.90;;;;;;4964248;28;20125;-78
2023/07/30 00:07:53;;;;;;;5.38;2.00;;;17.30;99.90;;;;;;4972268;28;20033;-78
2023/07/30 00:10:19;;;;;;;7.13;1.95;;;17.20;99.90;;;;;;4991230;28;20105;-78
2023/07/30 00:12:44;;;;;;;3.80;1.60;;;17.30;99.90;;;;;;4990169;28;20124;-78
2023/07/30 00:15:10;;;;;;;4.35;1.83;;;17.20;99.90;;;;;;4988044;28;20037;-78
2023/07/30 00:17:36;;;;;;;6.22;3.25;;;17.20;99.90;;;;;;4989215;28;20432;-78
2023/07/30 00:20:02;;;;;;;2.85;1.73;;;17.20;99.90;;;;;;4978438;28;20038;-78
2023/07/30 00:22:27;;;;;;;6.05;1.70;;;17.10;99.90;;;;;;4971867;28;20546;-78
2023/07/30 00:24:53;;;;;;;3.92;1.95;;;17.00;99.90;;;;;;4990526;28;20061;-77
2023/07/30 00:27:18;;;;;;;5.65;1.85;;;17.00;99.90;;;;;;4991466;28;20388;-78
2023/07/30 00:29:44;;;;;;;5.47;2.20;;;16.90;99.90;;;;;;4976682;28;20786;-78
2023/07/30 00:32:09;;;;;;;5.65;2.55;;;17.00;99.90;;;;;;4986524;28;20026;-77
2023/07/30 00:34:35;;;;;;;9.95;1.77;;;16.90;99.90;;;;;;4989922;28;20048;-77
2023/07/30 00:37:00;;;;;;;3.08;1.75;;;16.70;99.90;;;;;;4990353;28;20057;-78
2023/07/30 00:39:26;;;;;;;4.18;2.03;;;16.60;99.90;;;;;;4989583;28;20030;-78
2023/07/30 00:41:52;;;;;;;9.18;2.22;;;16.60;99.90;;;;;;4992561;28;20460;-77
2023/07/30 00:44:17;;;;;;;2.67;1.77;;;16.70;99.90;;;;;;4990495;28;20041;-77
2023/07/30 00:46:43;;;;;;;4.68;1.88;;;16.80;99.90;;;;;;5003223;28;20033;-77
2023/07/30 00:49:08;;;;;;;2.20;1.85;;;16.80;99.90;;;;;;4971989;28;20042;-77
2023/07/30 00:51:34;;;;;;;6.55;1.85;;;16.80;99.90;;;;;;4985882;28;20038;-77
2023/07/30 00:54:00;;;;;;;2.15;1.65;;;16.80;99.90;;;;;;4971710;28;20433;-78
2023/07/30 00:56:26;;;;;;;3.22;2.08;;;16.70;99.90;;;;;;4987420;28;20041;-78
2023/07/30 00:58:51;;;;;;;3.92;1.80;;;16.60;99.90;;;;;;5005872;28;20418;-78
2023/07/30 01:01:17;;;;;;;2.10;1.52;;;16.60;99.90;;;;;;4972164;28;20124;-78
2023/07/30 01:03:43;;;;;;;4.63;2.22;;;16.50;99.90;;;;;;4996742;28;20388;-77
2023/07/30 01:06:08;;;;;;;2.03;1.55;;;16.50;99.90;;;;;;4979659;28;20045;-77
2023/07/30 01:08:34;;;;;;;5.30;1.80;;;16.50;99.90;;;;;;5004023;28;20515;-77
2023/07/30 01:11:00;;;;;;;4.38;2.22;;;16.50;99.90;;;;;;4991549;28;20029;-77
2023/07/30 01:13:26;;;;;;;4.13;1.90;;;16.50;99.90;;;;;;4972491;28;20500;-78
2023/07/30 01:15:52;;;;;;;3.03;2.08;;;16.50;99.90;;;;;;4968814;28;20501;-77
2023/07/30 01:18:17;;;;;;;6.60;1.95;;;16.50;99.90;;;;;;4987429;28;20033;-77
2023/07/30 01:20:43;;;;;;;3.92;1.92;;;16.40;99.90;;;;;;5008047;28;20029;-77
2023/07/30 01:23:08;;;;;;;3.40;1.92;;;16.40;99.90;;;;;;4985350;28;20064;-77
2023/07/30 01:25:36;;;;;;;8.05;2.50;;;16.40;99.90;;;;;;4980332;28;20025;-78
2023/07/30 01:28:02;;;;;;;4.15;2.00;;;16.30;99.90;;;;;;4971803;28;20544;-77
2023/07/30 01:30:30;;;;;;;4.05;2.03;;;16.30;99.90;;;;;;5006392;28;20607;-77
2023/07/30 01:32:56;;;;;;;6.00;2.00;;;16.30;99.90;;;;;;4988816;28;20120;-78
2023/07/30 01:35:22;;;;;;;5.45;2.15;;;16.30;99.90;;;;;;5005328;28;20605;-77
2023/07/30 01:37:49;;;;;;;9.25;2.17;;;16.20;99.90;;;;;;4988519;28;20037;-77
2023/07/30 01:40:14;;;;;;;4.53;2.33;;;16.20;99.90;;;;;;4973592;28;20067;-77
2023/07/30 01:42:40;;;;;;;4.72;1.92;;;16.20;99.90;;;;;;4992347;28;20477;-78
2023/07/30 01:45:06;;;;;;;2.38;1.92;;;16.10;99.90;;;;;;4989867;28;20037;-78
2023/07/30 01:47:32;;;;;;;5.78;2.05;;;16.10;99.90;;;;;;4990869;28;20036;-78
2023/07/30 01:49:57;;;;;;;6.90;2.15;;;16.20;99.90;;;;;;5004132;28;20516;-78
2023/07/30 01:52:23;;;;;;;3.90;2.10;;;16.10;99.90;;;;;;4991663;28;20109;-78
2023/07/30 01:54:48;;;;;;;4.15;2.17;;;16.10;99.90;;;;;;4973455;28;20032;-78
2023/07/30 01:57:14;;;;;;;5.22;2.15;;;16.10;99.90;;;;;;4989830;28;20029;-78
2023/07/30 01:59:40;;;;;;;5.05;2.17;;;16.00;99.90;;;;;;4988116;28;20036;-77
2023/07/30 02:02:07;;;;;;;4.00;2.20;;;16.00;99.90;;;;;;4980378;28;20034;-77
2023/07/30 02:04:33;;;;;;;5.50;2.47;;;15.90;99.90;;;;;;4974933;28;20038;-77
2023/07/30 02:06:59;;;;;;;4.90;2.20;;;16.00;99.90;;;;;;4986355;28;20103;-77
2023/07/30 02:09:25;;;;;;;4.32;2.15;;;15.90;99.90;;;;;;4985802;28;20110;-77
2023/07/30 02:11:50;;;;;;;6.68;2.10;;;16.00;99.90;;;;;;4991539;28;20469;-78
2023/07/30 02:14:17;;;;;;;6.30;2.08;;;15.90;99.90;;;;;;4978545;28;20109;-77
2023/07/30 02:16:42;;;;;;;8.15;2.20;;;15.90;99.90;;;;;;4995291;28;20045;-77
2023/07/30 02:19:09;;;;;;;8.82;5.22;;;15.80;99.90;;;;;;4980738;28;20041;-78
2023/07/30 02:21:36;;;;;;;7.30;2.65;;;15.70;99.90;;;;;;4995609;28;20055;-78
2023/07/30 02:24:02;;;;;;;6.30;2.20;;;15.70;99.90;;;;;;4998563;28;20099;-77
2023/07/30 02:26:28;;;;;;;6.90;3.08;;;15.70;99.90;;;;;;5009325;28;20543;-78
2023/07/30 02:28:53;;;;;;;3.35;2.00;;;15.60;99.90;;;;;;4974831;28;20567;-78
2023/07/30 02:31:19;;;;;;;4.20;2.45;;;15.50;99.90;;;;;;4978629;28;20033;-78
2023/07/30 02:33:44;;;;;;;3.97;2.22;;;15.50;99.90;;;;;;4997155;28;20034;-77
2023/07/30 02:36:10;;;;;;;5.25;2.33;;;15.50;99.90;;;;;;4991659;28;20220;-78
2023/07/30 02:38:35;;;;;;;3.33;2.25;;;15.50;99.90;;;;;;5014711;28;20350;-78
2023/07/30 02:41:01;;;;;;;6.72;2.45;;;15.50;99.90;;;;;;4979088;28;20026;-78
2023/07/30 02:43:26;;;;;;;8.05;2.05;;;15.50;99.90;;;;;;4979525;28;20046;-77
2023/07/30 02:45:53;;;;;;;2.95;1.83;;;15.50;99.90;;;;;;4982273;28;20026;-77
2023/07/30 02:48:19;;;;;;;4.05;2.15;;;15.40;99.90;;;;;;4990776;28;20021;-78
2023/07/30 02:50:45;;;;;;;3.90;2.15;;;15.20;99.90;;;;;;4978202;28;20033;-77
2023/07/30 02:53:10;;;;;;;5.10;2.17;;;15.40;99.90;;;;;;4993915;28;20041;-77
2023/07/30 02:55:36;;;;;;;3.58;1.90;;;15.40;99.90;;;;;;5002692;28;20492;-77
2023/07/30 02:58:01;;;;;;;6.15;2.25;;;15.40;99.90;;;;;;4980438;28;20528;-78
2023/07/30 03:00:27;;;;;;;5.30;2.03;;;15.40;99.90;;;;;;4978883;28;20542;-78
2023/07/30 03:02:55;;;;;;;3.47;2.05;;;15.40;99.90;;;;;;4976204;28;20034;-78
2023/07/30 03:05:21;;;;;;;4.63;2.45;;;15.20;99.90;;;;;;4986779;28;20025;-77
2023/07/30 03:07:46;;;;;;;4.07;2.22;;;15.50;99.90;;;;;;5006926;28;20669;-77
2023/07/30 03:10:12;;;;;;;5.68;2.10;;;15.40;99.90;;;;;;4977866;28;20034;-78
2023/07/30 03:12:38;;;;;;;6.22;2.10;;;15.40;99.90;;;;;;4992204;28;20045;-78
2023/07/30 03:15:03;;;;;;;5.40;2.40;;;15.40;99.90;;;;;;4990286;28;20080;-77
2023/07/30 03:17:29;;;;;;;3.63;2.10;;;15.40;99.90;;;;;;5008756;28;20121;-77
2023/07/30 03:19:55;;;;;;;4.30;2.50;;;15.30;99.90;;;;;;4991733;28;20034;-78
2023/07/30 03:22:20;;;;;;;2.22;1.85;;;15.30;99.90;;;;;;5025086;28;20034;-78
2023/07/30 03:24:47;;;;;;;5.25;2.40;;;15.10;99.90;;;;;;4980358;28;20064;-77
2023/07/30 03:27:12;;;;;;;9.68;2.55;;;15.10;99.90;;;;;;4995022;28;20053;-78
2023/07/30 03:29:38;;;;;;;9.52;3.20;;;15.00;99.90;;;;;;4994669;28;20377;-77
2023/07/30 03:32:04;;;;;;;7.20;2.53;;;15.10;99.90;;;;;;5001999;28;20045;-77
2023/07/30 03:34:29;;;;;;;3.80;1.90;;;15.10;99.90;;;;;;4990834;28;20439;-78
2023/07/30 03:36:55;;;;;;;5.72;1.88;;;15.20;99.90;;;;;;4976141;28;20091;-77
2023/07/30 03:39:21;;;;;;;6.55;2.35;;;15.20;99.90;;;;;;4974596;28;20034;-78
2023/07/30 03:41:46;;;;;;;7.32;2.00;;;15.30;99.90;;;;;;5007665;28;20030;-78
2023/07/30 03:44:12;;;;;;;5.57;1.67;;;15.20;99.90;;;;;;4977565;28;22130;-78
2023/07/30 03:46:37;;;;;;;5.75;2.20;;;15.20;99.90;;;;;;4977530;28;20068;-77
2023/07/30 03:49:03;;;;;;;5.20;2.22;;;15.20;99.90;;;;;;5001956;28;20053;-77
2023/07/30 03:51:28;;;;;;;5.53;2.33;;;15.10;99.90;;;;;;4979610;28;20048;-77
2023/07/30 03:53:54;;;;;;;3.35;2.25;;;15.10;99.90;;;;;;5001133;28;20029;-78
2023/07/30 03:56:19;;;;;;;7.40;2.47;;;15.10;99.90;;;;;;4992536;28;20030;-78
2023/07/30 03:58:45;;;;;;;3.95;2.08;;;15.10;99.90;;;;;;4991559;28;20175;-78
2023/07/30 04:01:11;;;;;;;5.68;1.80;;;15.00;99.90;;;;;;4984438;28;20053;-78
2023/07/30 04:03:36;;;;;;;2.75;1.80;;;14.90;99.90;;;;;;5006754;28;20112;-77
2023/07/30 04:06:02;;;;;;;5.18;2.05;;;15.00;99.90;;;;;;4993561;28;20030;-77
2023/07/30 04:08:28;;;;;;;10.73;2.40;;;14.90;99.90;;;;;;4989939;28;20421;-77
2023/07/30 04:10:53;;;;;;;5.78;2.65;;;14.90;99.90;;;;;;4976815;28;20105;-78
2023/07/30 04:13:23;;;;;;;7.00;2.35;;;15.00;99.90;;;;;;4995571;28;20033;-78
2023/07/30 04:15:48;;;;;;;3.40;1.98;;;14.80;99.90;;;;;;5023989;28;20337;-78
2023/07/30 04:18:14;;;;;;;6.72;2.17;;;14.70;99.90;;;;;;4975009;28;20099;-78
2023/07/30 04:20:39;;;;;;;10.10;2.83;;;14.70;99.90;;;;;;5002440;28;20038;-77
2023/07/30 04:23:05;;;;;;;6.55;1.95;;;14.80;99.90;;;;;;4989865;28;20040;-78
2023/07/30 04:25:30;;;;;;;6.60;2.00;;;14.70;99.90;;;;;;4975181;28;20026;-78
2023/07/30 04:27:56;;;;;;;9.10;2.25;;;14.90;99.90;;;;;;4989164;28;20109;-78
2023/07/30 04:30:22;;;;;;;5.32;2.60;;;14.80;99.90;;;;;;4993741;28;20053;-78
2023/07/30 04:32:48;;;;;;;5.07;2.08;;;14.70;99.90;;;;;;4999458;28;20037;-79
2023/07/30 04:35:14;;;;;;;6.75;2.72;;;14.90;99.90;;;;;;5011365;28;20044;-78
2023/07/30 04:37:39;;;;;;;6.22;2.42;;;14.90;99.90;;;;;;5006066;28;20026;-78
2023/07/30 04:40:05;;;;;;;8.07;2.58;;;14.90;99.90;;;;;;4986924;28;20034;-78
2023/07/30 04:42:31;;;;;;;3.72;1.88;;;15.00;99.90;;;;;;4645857;28;10000205;-78
2023/07/30 04:44:57;;;;;;;11.25;2.40;;;14.90;99.90;;;;;;4632953;28;10000749;-77
2023/07/30 04:47:22;;;;;;;7.45;3.03;;;14.90;99.90;;;;;;4986556;28;20026;-78
2023/07/30 04:49:48;;;;;;;5.53;2.40;;;15.00;99.90;;;;;;4985373;28;20026;-78
2023/07/30 04:52:13;;;;;;;9.23;2.35;;;15.10;99.90;;;;;;4988828;28;20079;-77
2023/07/30 04:54:39;;;;;;;7.15;2.28;;;15.10;99.90;;;;;;4992051;28;20029;-76
2023/07/30 04:57:05;;;;;;;5.00;2.20;;;15.20;99.90;;;;;;4983299;28;20030;-77
2023/07/30 04:59:33;;;;;;;7.90;2.30;;;15.30;99.90;;;;;;5022771;28;20060;-79
2023/07/30 05:01:59;;;;;;;7.20;2.45;;;15.30;99.90;;;;;;5004252;28;20033;-79
2023/07/30 05:04:25;;;;;;;9.70;2.55;;;15.40;99.90;;;;;;4973200;28;20398;-79
2023/07/30 05:06:50;;;;;;;7.63;1.90;;;15.50;99.90;;;;;;5009456;28;20025;-80
2023/07/30 05:09:16;;;;;;;5.32;2.25;;;15.40;99.90;;;;;;4993945;28;20037;-79
2023/07/30 05:11:41;;;;;;;7.22;2.00;;;15.50;99.90;;;;;;5010293;28;20039;-79
2023/07/30 05:14:07;;;;;;;10.15;2.70;;;15.50;99.90;;;;;;4990245;28;20036;-76
2023/07/30 05:16:32;;;;;;;5.43;2.00;;;15.50;99.90;;;;;;4973576;28;20029;-77
2023/07/30 05:18:58;;;;;;;4.63;2.17;;;15.60;99.90;;;;;;4976417;28;20470;-79
2023/07/30 05:21:23;;;;;;;5.47;2.03;;;15.60;99.90;;;;;;4991043;28;20238;-79
2023/07/30 05:23:49;;;;;;;6.07;2.65;;;15.70;99.90;;;;;;4978680;28;20025;-79
2023/07/30 05:26:14;;;;;;;5.28;2.40;;;15.70;99.90;;;;;;5001335;28;20057;-77
2023/07/30 05:28:40;;;;;;;7.78;2.30;;;15.70;99.90;;;;;;4988076;28;20071;-77
2023/07/30 05:31:05;;;;;;;7.75;2.50;;;15.80;99.90;;;;;;5022400;28;20049;-78
2023/07/30 05:33:37;;;;;;;6.40;2.33;;;15.80;99.90;;;;;;4968394;28;20060;-78
2023/07/30 05:36:03;;;;;;;10.68;2.47;;;15.80;99.90;;;;;;4973335;28;20041;-77
2023/07/30 05:38:28;;;;;;;6.22;2.33;;;15.80;99.90;;;;;;4995113;28;20025;-77
2023/07/30 05:40:54;;;;;;;9.38;2.47;;;15.90;99.90;;;;;;5007051;28;20460;-77
2023/07/30 05:43:19;;;;;;;8.02;2.92;;;15.80;99.90;;;;;;4986498;28;20031;-77
2023/07/30 05:45:45;;;;;;;6.93;2.63;;;15.90;99.90;;;;;;5000900;28;20572;-77
2023/07/30 05:48:10;;;;;;;13.13;3.20;;;15.90;99.90;;;;;;5004840;28;20108;-77
2023/07/30 05:50:36;;;;;;;12.25;2.50;;;15.90;99.90;;;;;;4994501;28;20378;-77
2023/07/30 05:53:02;;;;;;;6.50;2.75;;;16.00;99.90;;;;;;5004696;28;20033;-77
2023/07/30 05:55:27;;;;;;;6.65;2.40;;;16.10;99.90;;;;;;5012713;28;20038;-78
2023/07/30 05:57:53;;;;;;;7.65;2.05;;;16.20;99.90;;;;;;4988860;28;20053;-78
2023/07/30 06:00:19;;;;;;;7.25;2.08;;;16.10;99.90;;;;;;4990789;28;20080;-77
2023/07/30 06:02:44;;;;;;;8.88;1.98;;;16.10;99.90;;;;;;4994988;28;20091;-77
2023/07/30 06:05:10;;;;;;;6.53;1.67;;;16.10;99.90;;;;;;4977968;28;20022;-77
2023/07/30 06:07:36;;;;;;;4.40;1.67;;;16.10;99.90;;;;;;5010972;28;20429;-77
2023/07/30 06:10:01;;;;;;;7.50;2.80;;;16.10;99.90;;;;;;4980655;28;20038;-77
2023/07/30 06:12:27;;;;;;;7.95;1.85;;;16.10;99.90;;;;;;5006273;28;20033;-77
2023/07/30 06:14:52;;;;;;;4.85;2.10;;;16.10;99.90;;;;;;4995574;28;20052;-77
2023/07/30 06:17:18;;;;;;;4.38;1.60;;;16.10;99.90;;;;;;4991106;28;20053;-77
2023/07/30 06:19:46;;;;;;;10.23;2.90;;;16.30;99.90;;;;;;4977793;28;20030;-78
2023/07/30 06:22:12;;;;;;;4.32;1.83;;;16.20;99.90;;;;;;5007847;28;20565;-77
2023/07/30 06:24:38;;;;;;;9.48;2.28;;;16.20;99.90;;;;;;4997902;28;20037;-77
2023/07/30 06:27:04;;;;;;;9.02;2.47;;;16.20;99.90;;;;;;4976238;28;20113;-76
2023/07/30 06:29:29;;;;;;;4.60;1.73;;;16.20;99.90;;;;;;4986612;28;20057;-79
2023/07/30 06:31:55;;;;;;;7.78;2.03;;;16.30;99.90;;;;;;4995974;28;20084;-80
2023/07/30 06:34:21;;;;;;;2.97;1.83;;;16.30;99.90;;;;;;4998230;28;20041;-79
2023/07/30 06:36:47;;;;;;;9.45;1.88;;;16.30;99.90;;;;;;4978530;28;20835;-78
2023/07/30 06:39:12;;;;;;;4.53;1.80;;;16.30;99.90;;;;;;4991650;28;20076;-79
2023/07/30 06:41:38;;;;;;;6.03;1.92;;;16.30;99.90;;;;;;4989455;28;20098;-79
2023/07/30 06:44:04;;;;;;;6.30;1.70;;;16.30;99.90;;;;;;4990443;28;20066;-78
2023/07/30 06:46:29;;;;;;;4.75;1.55;;;16.30;99.90;;;;;;4986437;28;20033;-79
2023/07/30 06:48:55;;;;;;;8.88;2.40;;;16.30;99.90;;;;;;4976554;28;20046;-78
2023/07/30 06:51:24;;;;;;;5.03;1.60;;;16.40;99.90;;;;;;5006830;28;20100;-78
2023/07/30 06:53:49;;;;;;;1.92;0.90;;;16.40;99.90;;;;;;4986749;28;20511;-79
2023/07/30 06:56:15;;;;;;;8.30;1.90;;;16.40;99.90;;;;;;5008202;28;20038;-79
2023/07/30 06:58:40;;;;;;;7.70;1.55;;;16.40;99.90;;;;;;5001633;28;20049;-78
2023/07/30 07:01:06;;;;;;;5.13;1.55;;;16.40;99.90;;;;;;5006406;28;20079;-78
2023/07/30 07:03:31;;;;;;;10.45;1.70;;;16.40;99.90;;;;;;4997000;28;20120;-76
2023/07/30 07:05:57;;;;;;;3.00;0.88;;;16.50;99.90;;;;;;4995134;28;20037;-76
2023/07/30 07:08:23;;;;;;;6.40;1.75;;;16.50;99.90;;;;;;4992416;28;20071;-79
2023/07/30 07:10:49;;;;;;;6.70;1.17;;;16.50;99.90;;;;;;4993811;28;20033;-79
2023/07/30 07:13:17;;;;;;;7.65;1.52;;;16.50;99.90;;;;;;4991398;28;20374;-79
2023/07/30 07:15:43;;;;;;;8.05;1.63;;;16.60;99.90;;;;;;4990893;28;20033;-77
2023/07/30 07:18:09;;;;;;;6.05;1.25;;;16.60;99.90;;;;;;5006677;28;20037;-78
2023/07/30 07:20:34;;;;;;;3.97;1.30;;;16.70;99.90;;;;;;4981961;28;20029;-79
2023/07/30 07:23:00;;;;;;;4.97;1.33;;;16.70;99.90;;;;;;4982074;28;20072;-78
2023/07/30 07:25:26;;;;;;;4.82;1.35;;;16.70;99.90;;;;;;5008467;28;20025;-78
2023/07/30 07:27:52;;;;;;;5.80;1.63;;;16.70;99.90;;;;;;5025528;28;20025;-79
2023/07/30 07:30:18;;;;;;;5.97;1.90;;;16.80;99.90;;;;;;4990940;28;20543;-79
2023/07/30 07:32:43;;;;;;;8.60;1.83;;;16.80;99.90;;;;;;4983867;28;20032;-78
2023/07/30 07:35:10;;;;;;;9.25;2.25;;;16.70;99.90;;;;;;5006321;28;20033;-78
2023/07/30 07:37:35;;;;;;;6.22;1.42;;;16.90;99.90;;;;;;4973403;28;20033;-78
2023/07/30 07:40:01;;;;;;;6.65;2.03;;;17.00;99.90;;;;;;4974362;28;20789;-78
2023/07/30 07:42:26;;;;;;;6.95;1.75;;;17.00;99.90;;;;;;4989057;28;20030;-78
2023/07/30 07:44:52;;;;;;;10.35;1.88;;;17.10;99.90;;;;;;5005804;28;20041;-78
2023/07/30 07:47:17;;;;;;;7.97;1.42;;;17.00;99.90;;;;;;5005866;28;20148;-78
2023/07/30 07:49:43;;;;;;;7.07;1.98;;;17.00;99.90;;;;;;4995527;28;20088;-78
2023/07/30 07:52:08;;;;;;;6.75;1.75;;;17.00;99.90;;;;;;4991609;28;20030;-78
2023/07/30 07:54:34;;;;;;;9.77;2.22;;;17.30;99.90;;;;;;4997320;28;20060;-78
2023/07/30 07:57:00;;;;;;;4.53;1.67;;;17.40;99.90;;;;;;4976193;28;20381;-79
2023/07/30 07:59:27;;;;;;;8.07;2.50;;;17.60;99.90;;;;;;4991284;28;20051;-78
2023/07/30 08:01:53;;;;;;;6.80;1.27;;;17.80;99.90;;;;;;5024196;28;20043;-77
2023/07/30 08:04:21;;;;;;;13.85;2.65;;;18.10;99.90;;;;;;5001055;28;21911;-78
2023/07/30 08:06:46;;;;;;;6.50;1.70;;;18.20;99.90;;;;;;5006336;28;20021;-78
2023/07/30 08:09:12;;;;;;;8.38;2.65;;;18.40;99.90;;;;;;5020437;28;20040;-78
2023/07/30 08:11:37;;;;;;;10.15;2.10;;;18.60;99.90;;;;;;4989817;28;20029;-78
2023/07/30 08:14:03;;;;;;;4.10;1.52;;;19.00;99.90;;;;;;4984179;28;20034;-79
2023/07/30 08:16:29;;;;;;;7.38;2.28;;;19.00;99.90;;;;;;4995868;28;20406;-79
2023/07/30 08:18:54;;;;;;;9.73;2.67;;;18.50;99.90;;;;;;4991414;28;20037;-79
2023/07/30 08:21:20;;;;;;;7.38;1.85;;;18.90;99.90;;;;;;4990729;28;20028;-79
2023/07/30 08:23:46;;;;;;;6.57;1.70;;;19.10;99.90;;;;;;4980292;28;20042;-78
2023/07/30 08:26:11;;;;;;;6.93;1.98;;;19.10;99.90;;;;;;4974386;28;20099;-79
2023/07/30 08:28:37;;;;;;;5.60;1.77;;;18.90;99.90;;;;;;5000799;28;20511;-78
2023/07/30 08:31:03;;;;;;;8.38;2.08;;;18.60;99.90;;;;;;4997820;28;20538;-78
2023/07/30 08:33:29;;;;;;;15.65;2.83;;;19.00;99.90;;;;;;4984778;28;20036;-78
2023/07/30 08:35:56;;;;;;;9.75;2.50;;;18.90;99.90;;;;;;4988646;28;20034;-78
2023/07/30 08:38:21;;;;;;;8.25;1.95;;;19.10;99.90;;;;;;4975148;28;20037;-78
2023/07/30 08:40:47;;;;;;;5.97;2.25;;;19.20;99.90;;;;;;4982610;28;20042;-78
2023/07/30 08:43:13;;;;;;;9.43;2.13;;;19.20;99.90;;;;;;4986648;28;20030;-78
2023/07/30 08:45:38;;;;;;;8.38;2.75;;;19.10;99.90;;;;;;4977341;28;20033;-78
2023/07/30 08:48:04;;;;;;;10.70;2.50;;;19.40;99.90;;;;;;4992221;28;20045;-77
2023/07/30 08:50:30;;;;;;;6.38;2.38;;;20.30;99.90;;;;;;5007220;28;20029;-79
2023/07/30 08:52:55;;;;;;;8.02;2.00;;;20.40;99.90;;;;;;4986484;28;20544;-78
2023/07/30 08:55:21;;;;;;;9.02;2.33;;;20.40;99.90;;;;;;4990016;28;20025;-78
2023/07/30 08:57:47;;;;;;;6.22;1.98;;;21.00;99.90;;;;;;4988962;28;20159;-78
2023/07/30 09:00:14;;;;;;;5.75;2.08;;;21.20;99.90;;;;;;4980718;28;20440;-78
2023/07/30 09:02:53;;;;;;;9.52;2.05;;;21.30;99.90;;;;;;4984752;28;20503;-78
2023/07/30 09:05:30;;;;;;;7.93;1.70;;;20.70;99.90;;;;;;4988596;28;20512;-78
2023/07/30 09:08:01;;;;;;;8.90;2.58;;;20.90;99.90;;;;;;4998850;28;20102;-78
2023/07/30 09:10:27;;;;;;;5.35;1.55;;;21.70;99.90;;;;;;4978143;28;20374;-78
2023/07/30 09:12:54;;;;;;;7.75;2.17;;;21.00;99.90;;;;;;4989596;28;20035;-78
2023/07/30 09:15:20;;;;;;;7.50;2.95;;;21.60;99.90;;;;;;5002077;28;20487;-78
2023/07/30 09:17:46;;;;;;;10.25;2.40;;;22.00;99.90;;;;;;4974602;28;20021;-79
2023/07/30 09:20:12;;;;;;;13.25;2.92;;;22.10;99.90;;;;;;4979532;28;20088;-78
2023/07/30 09:22:40;;;;;;;7.20;1.90;;;22.30;99.90;;;;;;5001720;28;20437;-79
2023/07/30 09:25:06;;;;;;;8.52;1.95;;;22.10;99.90;;;;;;4999304;28;20045;-79
2023/07/30 09:27:32;;;;;;;6.18;2.00;;;22.40;99.90;;;;;;4990326;28;20025;-80
2023/07/30 09:29:58;;;;;;;8.38;2.05;;;22.10;99.90;;;;;;4990727;28;20056;-78
2023/07/30 09:32:34;;;;;;;8.80;1.88;;;21.70;99.90;;;;;;4981827;28;20083;-79
2023/07/30 09:35:09;;;;;;;;;;;22.00;99.90;;;;;;4976915;28;20056;-80
2023/07/30 09:37:39;;;;;;;7.97;2.15;;;22.80;99.90;;;;;;4996939;28;19917;-79
2023/07/30 09:40:06;;;;;;;8.18;2.10;;;22.80;99.90;;;;;;4971828;28;20038;-79
2023/07/30 09:42:35;;;;;;;8.85;2.10;;;23.00;99.90;;;;;;4991643;28;20481;-79
2023/07/30 09:45:00;;;;;;;4.35;1.52;;;23.00;99.90;;;;;;4978279;28;20540;-80
2023/07/30 09:47:26;;;;;;;4.03;1.63;;;23.10;99.90;;;;;;4995747;28;20029;-79
2023/07/30 09:49:53;;;;;;;5.53;1.60;;;23.00;99.90;;;;;;4975592;28;20481;-79
2023/07/30 09:52:18;;;;;;;5.00;1.77;;;22.80;99.90;;;;;;4990722;28;20033;-79
2023/07/30 09:54:44;;;;;;;7.88;1.95;;;23.30;99.90;;;;;;4978286;28;20021;-79
2023/07/30 09:57:10;;;;;;;9.05;3.17;;;23.40;99.90;;;;;;4990823;28;20037;-80
2023/07/30 09:59:37;;;;;;;8.25;2.17;;;23.60;99.90;;;;;;5005331;28;20095;-79
2023/07/30 10:02:03;;;;;;;6.03;2.00;;;23.60;99.90;;;;;;4975816;28;20040;-80
2023/07/30 10:04:29;;;;;;;6.65;1.30;;;23.90;99.90;;;;;;4981620;28;20038;-80
2023/07/30 10:07:16;;;;;;;9.68;2.20;;;23.70;99.90;;;;;;4985185;28;20405;-79
2023/07/30 10:09:43;;;;;;;9.68;1.75;;;24.00;99.90;;;;;;4995268;28;20551;-80
2023/07/30 10:12:11;;;;;;;9.10;1.88;;;24.20;99.90;;;;;;4991863;28;20033;-80
2023/07/30 10:14:36;;;;;;;5.28;1.55;;;24.30;99.90;;;;;;4974039;28;20038;-79
2023/07/30 10:17:02;;;;;;;6.25;1.70;;;24.20;99.90;;;;;;4994169;28;20472;-80
2023/07/30 10:19:28;;;;;;;5.97;1.70;;;24.50;99.90;;;;;;4989359;28;20045;-80
2023/07/30 10:21:59;;;;;;;8.13;1.50;;;24.50;99.90;;;;;;4978011;28;20124;-80
2023/07/30 10:24:25;;;;;;;6.35;1.83;;;24.70;99.90;;;;;;5003473;28;20039;-79
2023/07/30 10:26:51;;;;;;;7.45;1.33;;;24.80;99.90;;;;;;4975566;28;20038;-79
2023/07/30 10:29:18;;;;;;;6.95;1.40;;;24.90;99.90;;;;;;4968737;28;20033;-79
2023/07/30 10:31:57;;;;;;;4.35;1.50;;;24.50;99.60;;;;;;4995355;28;20116;-79
2023/07/30 10:34:26;;;;;;;6.65;1.63;;;24.80;99.90;;;;;;4979815;28;20037;-79
2023/07/30 10:36:52;;;;;;;8.10;1.48;;;24.90;98.90;;;;;;4984894;28;20037;-79
2023/07/30 10:39:25;;;;;;;1.35;0.85;;;24.90;99.10;;;;;;5008271;28;20025;-79
2023/07/30 10:41:56;;;;;;;10.32;1.50;;;25.10;99.90;;;;;;4978710;28;20492;-78
2023/07/30 10:44:24;;;;;;;9.48;1.70;;;24.90;98.00;;;;;;4998420;28;20064;-80
2023/07/30 10:46:50;;;;;;;4.22;1.02;;;24.90;99.60;;;;;;4987356;28;20035;-81
2023/07/30 10:49:16;;;;;;;7.32;1.75;;;24.90;99.90;;;;;;4980387;28;20162;-80
2023/07/30 10:51:41;;;;;;;10.02;1.73;;;24.70;98.00;;;;;;4998663;28;20117;-79
2023/07/30 10:54:10;;;;;;;4.55;1.70;;;24.30;97.80;;;;;;4983246;28;20037;-79
2023/07/30 10:56:37;;;;;;;6.68;1.30;;;24.40;98.50;;;;;;4974581;28;20583;-79
2023/07/30 10:59:04;;;;;;;8.57;1.92;;;24.50;99.70;;;;;;5003877;28;20030;-79
2023/07/30 11:01:30;;;;;;;2.75;0.93;;;24.20;98.10;;;;;;4978768;28;20041;-79
2023/07/30 11:03:56;;;;;;;7.00;1.40;;;24.50;97.20;;;;;;4994260;28;20048;-79
2023/07/30 11:06:25;;;;;;;3.92;1.30;;;24.50;97.60;;;;;;4993244;28;20048;-80
2023/07/30 11:08:50;;;;;;;5.32;1.17;;;24.40;96.80;;;;;;5000722;28;20138;-79
2023/07/30 11:11:16;;;;;;;6.93;0.82;;;24.00;96.70;;;;;;4994655;28;20492;-79
2023/07/30 11:13:46;;;;;;;3.90;1.00;;;24.80;96.60;;;;;;4983915;28;20033;-79
2023/07/30 11:16:12;;;;;;;5.00;1.23;;;24.70;95.90;;;;;;5002812;28;20034;-80
2023/07/30 11:18:38;;;;;;;5.50;1.50;;;25.10;98.40;;;;;;4976811;28;20401;-79
2023/07/30 11:21:04;;;;;;;8.68;1.83;;;25.40;96.30;;;;;;4989942;28;20393;-79
2023/07/30 11:23:31;;;;;;;1.67;0.80;;;25.50;98.80;;;;;;4985439;28;20827;-80
2023/07/30 11:25:57;;;;;;;7.13;1.63;;;25.60;96.30;;;;;;4289581;28;10000191;-78
2023/07/30 11:28:29;;;;;;;5.90;1.45;;;25.70;97.60;;;;;;4975386;28;20030;-80
2023/07/30 11:30:59;;;;;;;9.45;1.27;;;25.30;95.20;;;;;;5007071;28;20037;-80
2023/07/30 11:33:25;;;;;;;5.82;1.35;;;25.30;95.90;;;;;;4989039;28;20041;-79
2023/07/30 11:35:50;;;;;;;3.45;1.10;;;25.10;94.60;;;;;;4988609;28;20117;-79
2023/07/30 11:38:17;;;;;;;5.25;1.25;;;25.30;96.90;;;;;;4988068;28;20049;-79
2023/07/30 11:40:43;;;;;;;6.90;1.42;;;25.40;95.60;;;;;;4991038;28;20056;-79
2023/07/30 11:43:09;;;;;;;6.03;1.63;;;25.50;94.60;;;;;;4999213;28;20124;-80
2023/07/30 11:45:35;;;;;;;4.75;1.30;;;25.70;96.60;;;;;;4971123;28;20038;-79
2023/07/30 11:48:10;;;;;;;5.13;1.15;;;25.40;93.60;;;;;;5007039;28;20041;-80
2023/07/30 11:50:52;;;;;;;4.20;0.73;;;25.30;92.70;;;;;;4991208;28;20030;-80
2023/07/30 11:53:18;;;;;;;3.72;1.00;;;25.50;95.10;;;;;;4976993;28;20029;-79
2023/07/30 11:55:44;;;;;;;4.28;1.10;;;25.90;93.40;;;;;;4987644;28;20860;-80
2023/07/30 11:58:15;;;;;;;6.80;1.30;;;26.10;93.40;;;;;;5003454;28;20030;-79
2023/07/30 12:00:50;;;;;;;5.63;1.63;;;26.40;92.50;;;;;;4985405;28;20083;-80
2023/07/30 12:03:16;;;;;;;5.53;1.13;;;26.40;92.90;;;;;;4991649;28;20621;-80
2023/07/30 12:05:41;;;;;;;6.85;1.75;;;26.40;92.80;;;;;;4977777;28;20030;-80
2023/07/30 12:08:13;;;;;;;6.80;1.23;;;26.10;91.00;;;;;;4990385;28;20060;-81
2023/07/30 12:10:43;;;;;;;4.30;1.15;;;26.50;93.60;;;;;;4988768;28;20095;-79
2023/07/30 12:13:15;;;;;;;3.10;0.50;;;26.50;90.80;;;;;;4975964;28;20037;-80
2023/07/30 12:15:43;;;;;;;6.80;1.50;;;26.50;91.20;;;;;;5008785;28;20485;-79
2023/07/30 12:18:09;;;;;;;2.55;1.15;;;26.80;87.90;;;;;;4972815;28;20439;-80
2023/07/30 12:20:34;;;;;;;4.22;1.02;;;26.90;88.30;;;;;;4992393;28;20128;-80
2023/07/30 12:23:05;;;;;;;3.40;0.75;;;27.00;88.50;;;;;;4978621;28;20405;-79
2023/07/30 12:25:31;;;;;;;4.88;0.85;;;26.90;87.30;;;;;;5025417;28;20201;-80
2023/07/30 12:27:56;;;;;;;6.15;1.48;;;27.00;87.50;;;;;;4987606;28;20139;-80
2023/07/30 12:30:22;;;;;;;5.40;0.93;;;26.90;87.80;;;;;;4992448;28;20021;-80
2023/07/30 12:32:47;;;;;;;4.80;1.10;;;27.10;89.30;;;;;;4978603;28;20025;-81
2023/07/30 12:35:13;;;;;;;6.43;1.08;;;27.30;89.70;;;;;;4976894;28;20033;-80
2023/07/30 12:37:39;;;;;;;4.78;1.10;;;27.10;84.60;;;;;;4993909;28;20041;-81
2023/07/30 12:40:05;;;;;;;0.80;0.70;;;26.70;84.60;;;;;;4990790;28;20583;-80